Time;durP1;ratioP1;P1;durP2;ratioP2;P2;SDS_P1;SDS_P2;PMS_P1;PMS_P2;Temp;Humidity;BMP_temperature;BMP_pressure;BME280_temperature;BME280_humidity;BME280_pressure;Samples;Min_cycle;Max_cycle;Signal;HPM_P1;HPM_P2
2021/12/22 00:00:17;;;;;;;13.13;9.43;;;3.80;69.70;;;;;;6251267;28;20536;-64
2021/12/22 00:03:20;;;;;;;11.17;9.47;;;3.80;70.10;;;;;;6250494;28;20483;-64
2021/12/22 00:06:26;;;;;;;12.80;8.30;;;3.80;70.70;;;;;;6251195;28;20474;-64
2021/12/22 00:09:30;;;;;;;10.03;7.63;;;3.70;69.30;;;;;;6253026;28;20475;-64
2021/12/22 00:12:35;;;;;;;8.47;6.63;;;3.70;67.50;;;;;;6274861;28;20481;-64
2021/12/22 00:15:38;;;;;;;7.83;6.97;;;3.70;67.40;;;;;;6266013;28;20482;-64
2021/12/22 00:18:41;;;;;;;12.40;9.20;;;3.60;67.30;;;;;;6250317;28;20475;-64
2021/12/22 00:21:45;;;;;;;14.60;13.20;;;3.60;67.90;;;;;;6250328;28;20490;-64
2021/12/22 00:24:48;;;;;;;13.40;11.50;;;3.60;68.20;;;;;;6250451;28;20501;-64
2021/12/22 00:27:53;;;;;;;8.27;7.50;;;3.70;68.30;;;;;;6249962;28;20474;-64
2021/12/22 00:30:56;;;;;;;11.10;9.50;;;3.60;67.30;;;;;;6245627;28;20790;-64
2021/12/22 00:33:59;;;;;;;9.23;8.33;;;3.60;67.40;;;;;;6249925;28;20825;-65
2021/12/22 00:37:04;;;;;;;10.73;7.87;;;3.60;67.70;;;;;;6250300;28;20817;-64
2021/12/22 00:40:08;;;;;;;8.00;7.27;;;3.60;67.40;;;;;;6250500;28;20466;-64
2021/12/22 00:43:13;;;;;;;10.73;8.23;;;3.70;67.90;;;;;;6250546;28;20871;-64
2021/12/22 00:46:16;;;;;;;8.70;7.60;;;3.70;67.40;;;;;;6254148;28;20475;-64
2021/12/22 00:49:19;;;;;;;8.87;7.70;;;3.70;67.20;;;;;;6260180;28;20470;-64
2021/12/22 00:52:23;;;;;;;11.53;9.30;;;3.80;67.40;;;;;;6264364;28;20812;-64
2021/12/22 00:55:27;;;;;;;11.03;8.70;;;3.70;67.40;;;;;;6261228;28;20483;-64
2021/12/22 00:58:31;;;;;;;11.03;9.87;;;3.80;67.70;;;;;;6256180;28;20588;-64
2021/12/22 01:01:34;;;;;;;10.23;9.13;;;3.80;67.90;;;;;;6256343;28;20486;-64
2021/12/22 01:04:39;;;;;;;13.70;8.60;;;3.80;68.10;;;;;;6262066;28;20501;-65
2021/12/22 01:07:44;;;;;;;9.47;8.30;;;3.80;68.20;;;;;;6262824;28;20459;-64
2021/12/22 01:10:52;;;;;;;9.63;8.53;;;3.80;67.70;;;;;;6273549;28;20531;-63
2021/12/22 01:13:57;;;;;;;10.00;8.63;;;3.80;67.70;;;;;;6279227;28;20504;-63
2021/12/22 01:17:02;;;;;;;9.83;8.87;;;3.80;67.80;;;;;;6258793;28;20471;-64
2021/12/22 01:20:13;;;;;;;9.90;8.10;;;3.80;67.50;;;;;;6255670;28;20443;-64
2021/12/22 01:23:16;;;;;;;10.20;8.47;;;3.80;67.20;;;;;;6254665;28;20463;-64
2021/12/22 01:26:19;;;;;;;9.37;8.27;;;3.80;67.10;;;;;;6253838;28;20467;-64
2021/12/22 01:29:23;;;;;;;10.33;9.03;;;3.80;67.20;;;;;;6253869;28;20832;-64
2021/12/22 01:32:27;;;;;;;9.60;8.60;;;3.80;67.00;;;;;;6254192;28;20963;-64
2021/12/22 01:35:33;;;;;;;10.00;9.07;;;3.90;66.90;;;;;;6254733;28;20478;-64
2021/12/22 01:38:36;;;;;;;11.20;8.40;;;3.80;66.90;;;;;;6254517;28;20470;-64
2021/12/22 01:41:39;;;;;;;14.00;9.57;;;3.80;66.90;;;;;;6254187;28;20850;-64
2021/12/22 01:45:02;;;;;;;10.87;8.93;;;3.80;66.80;;;;;;6253646;28;20470;-64
2021/12/22 01:51:29;;;;;;;9.43;8.37;;;3.80;67.00;;;;;;6253673;28;20482;-65
2021/12/22 01:54:35;;;;;;;9.40;8.53;;;3.90;66.80;;;;;;6253761;28;20475;-64
2021/12/22 01:57:46;;;;;;;12.80;9.03;;;3.80;66.80;;;;;;6253402;28;20479;-64
2021/12/22 02:00:51;;;;;;;12.83;8.73;;;3.80;66.70;;;;;;6253211;28;20486;-64
2021/12/22 02:03:54;;;;;;;9.83;8.67;;;3.80;67.00;;;;;;6252210;28;20970;-64
2021/12/22 02:07:00;;;;;;;13.63;10.03;;;3.70;67.10;;;;;;6253293;28;20485;-64
2021/12/22 02:10:19;;;;;;;9.70;7.97;;;3.80;67.40;;;;;;6260376;28;20470;-64
2021/12/22 02:13:28;;;;;;;9.67;8.07;;;3.70;67.60;;;;;;6277617;28;20493;-64
2021/12/22 02:16:37;;;;;;;9.50;8.53;;;3.80;67.90;;;;;;6261326;28;20513;-64
2021/12/22 02:19:43;;;;;;;11.37;9.70;;;3.70;67.70;;;;;;6253300;28;20897;-64
2021/12/22 02:22:46;;;;;;;10.03;9.00;;;3.80;67.80;;;;;;6252831;28;20481;-64
2021/12/22 02:25:54;;;;;;;12.07;9.07;;;3.70;67.50;;;;;;6253254;28;20478;-64
2021/12/22 02:29:01;;;;;;;9.20;8.17;;;3.70;67.20;;;;;;6252596;28;20474;-64
2021/12/22 02:32:13;;;;;;;11.10;8.90;;;3.70;67.30;;;;;;6252681;28;20424;-64
2021/12/22 02:35:25;;;;;;;10.53;9.43;;;3.70;67.50;;;;;;6252792;28;20938;-64
2021/12/22 02:38:28;;;;;;;9.53;8.53;;;3.70;67.40;;;;;;6253009;28;20459;-64
2021/12/22 02:41:33;;;;;;;8.40;7.60;;;3.60;67.60;;;;;;6252341;28;20466;-64
2021/12/22 02:44:36;;;;;;;11.80;8.63;;;3.60;67.50;;;;;;6252285;28;20470;-64
2021/12/22 02:47:39;;;;;;;8.57;7.77;;;3.60;67.30;;;;;;6252455;28;20854;-64
2021/12/22 02:50:44;;;;;;;9.43;8.53;;;3.70;67.20;;;;;;6252176;28;20470;-64
2021/12/22 02:54:01;;;;;;;9.63;8.27;;;3.60;67.00;;;;;;6252328;28;20467;-64
2021/12/22 02:57:19;;;;;;;10.50;8.80;;;3.60;67.00;;;;;;6252374;28;20533;-64
2021/12/22 03:00:33;;;;;;;10.50;9.40;;;3.50;67.20;;;;;;6252008;28;20478;-64
2021/12/22 03:03:53;;;;;;;10.67;8.47;;;3.60;67.60;;;;;;6251986;28;20507;-64
2021/12/22 03:07:01;;;;;;;9.60;8.70;;;3.60;67.70;;;;;;6252039;28;20899;-64
2021/12/22 03:10:09;;;;;;;10.00;7.97;;;3.60;67.50;;;;;;6259244;28;20462;-64
2021/12/22 03:13:13;;;;;;;9.47;8.50;;;3.60;66.90;;;;;;6276333;28;20470;-64
2021/12/22 03:16:18;;;;;;;8.27;7.40;;;3.60;66.50;;;;;;6262330;28;20478;-64
2021/12/22 03:19:23;;;;;;;10.27;9.20;;;3.60;66.30;;;;;;6251281;28;20959;-64
2021/12/22 03:22:28;;;;;;;9.43;8.47;;;3.70;66.50;;;;;;6251660;28;20475;-64
2021/12/22 03:25:31;;;;;;;9.03;8.13;;;3.70;66.70;;;;;;6251493;28;20474;-64
2021/12/22 03:28:35;;;;;;;10.03;8.90;;;3.70;66.30;;;;;;6250919;28;20860;-64
2021/12/22 03:31:38;;;;;;;9.63;8.40;;;3.70;66.40;;;;;;6251687;28;20482;-64
2021/12/22 03:34:43;;;;;;;10.50;8.43;;;3.70;66.50;;;;;;6251038;28;20471;-64
2021/12/22 03:37:50;;;;;;;10.37;9.00;;;3.60;66.40;;;;;;6251123;28;20555;-64
2021/12/22 03:40:53;;;;;;;11.03;8.60;;;3.60;66.40;;;;;;6250933;28;20478;-65
2021/12/22 03:43:56;;;;;;;9.43;8.53;;;3.60;66.00;;;;;;6250593;28;20474;-64
2021/12/22 03:47:00;;;;;;;10.27;9.10;;;3.60;65.60;;;;;;6251218;28;20861;-64
2021/12/22 03:50:05;;;;;;;9.57;8.57;;;3.60;65.70;;;;;;6250471;28;20458;-64
2021/12/22 03:53:09;;;;;;;10.60;8.67;;;3.60;65.70;;;;;;6250775;28;20463;-64
2021/12/22 03:56:12;;;;;;;10.50;8.40;;;3.60;65.70;;;;;;6250972;28;20451;-64
2021/12/22 03:59:15;;;;;;;12.87;7.83;;;3.60;65.90;;;;;;6250017;28;20479;-64
2021/12/22 04:02:21;;;;;;;10.20;8.93;;;3.60;65.70;;;;;;6250383;28;20455;-65
2021/12/22 04:05:25;;;;;;;9.33;8.53;;;3.60;65.60;;;;;;6251193;28;20942;-64
2021/12/22 04:08:29;;;;;;;10.50;9.50;;;3.60;65.40;;;;;;6251112;28;20863;-64
2021/12/22 04:11:32;;;;;;;9.40;8.47;;;3.60;65.40;;;;;;6270471;28;20531;-64
2021/12/22 04:14:35;;;;;;;10.70;9.70;;;3.50;65.10;;;;;;6274781;28;20476;-63
2021/12/22 04:17:39;;;;;;;10.90;8.87;;;3.40;64.80;;;;;;6251561;28;20969;-63
2021/12/22 04:20:42;;;;;;;10.50;8.60;;;3.30;65.20;;;;;;6253485;28;20467;-64
2021/12/22 04:23:46;;;;;;;11.20;10.10;;;3.20;65.50;;;;;;6252107;28;20474;-63
2021/12/22 04:26:50;;;;;;;9.90;8.87;;;3.20;65.80;;;;;;6254284;28;20849;-63
2021/12/22 04:29:53;;;;;;;13.50;9.07;;;3.30;66.20;;;;;;6255384;28;20997;-63
2021/12/22 04:32:57;;;;;;;10.43;9.43;;;3.20;65.90;;;;;;6254831;28;20471;-63
2021/12/22 04:36:00;;;;;;;10.50;9.30;;;3.30;66.30;;;;;;6256818;28;20550;-63
2021/12/22 04:39:05;;;;;;;12.30;9.60;;;3.30;66.50;;;;;;6255741;28;20467;-64
2021/12/22 04:42:09;;;;;;;10.63;9.10;;;3.30;66.80;;;;;;6252286;28;20463;-64
2021/12/22 04:45:13;;;;;;;10.40;8.20;;;3.30;66.40;;;;;;6255644;28;20490;-64
2021/12/22 04:48:17;;;;;;;13.10;9.00;;;3.30;65.90;;;;;;6255328;28;20473;-64
2021/12/22 04:51:25;;;;;;;12.10;10.00;;;3.30;65.90;;;;;;6253712;28;21312;-64
2021/12/22 04:54:41;;;;;;;12.97;9.13;;;3.30;66.10;;;;;;6253864;28;20498;-64
2021/12/22 04:57:44;;;;;;;11.13;9.00;;;3.30;66.40;;;;;;6253606;28;20474;-64
2021/12/22 05:00:47;;;;;;;13.17;9.97;;;3.30;67.00;;;;;;6254653;28;20528;-64
2021/12/22 05:03:51;;;;;;;10.90;9.80;;;3.40;67.40;;;;;;6253653;28;20572;-64
2021/12/22 05:06:54;;;;;;;11.47;10.10;;;3.40;67.80;;;;;;6254436;28;20470;-64
2021/12/22 05:09:58;;;;;;;12.33;10.20;;;3.40;67.40;;;;;;6259562;28;20476;-64
2021/12/22 05:13:01;;;;;;;11.87;9.60;;;3.40;67.10;;;;;;6277684;28;20469;-64
2021/12/22 05:16:06;;;;;;;13.63;9.37;;;3.30;67.50;;;;;;6263942;28;20466;-65
2021/12/22 05:19:14;;;;;;;9.37;8.47;;;3.30;67.70;;;;;;6252005;28;20490;-65
2021/12/22 05:22:17;;;;;;;11.20;8.93;;;3.30;67.00;;;;;;6251130;28;20479;-66
2021/12/22 05:25:22;;;;;;;11.70;9.80;;;3.20;66.90;;;;;;6251770;28;20470;-65
2021/12/22 05:28:25;;;;;;;11.67;10.07;;;3.20;67.20;;;;;;6251363;28;20824;-65
2021/12/22 05:31:28;;;;;;;10.43;9.40;;;3.20;67.50;;;;;;6250936;28;20514;-64
2021/12/22 05:34:32;;;;;;;10.33;9.33;;;3.20;67.60;;;;;;6250548;28;20470;-65
2021/12/22 05:37:37;;;;;;;11.30;10.20;;;3.20;67.90;;;;;;6253091;28;20485;-65
2021/12/22 05:40:42;;;;;;;11.63;10.37;;;3.10;68.00;;;;;;6254442;28;20479;-64
2021/12/22 05:43:45;;;;;;;13.37;9.70;;;3.10;68.20;;;;;;6254357;28;20479;-64
2021/12/22 05:46:48;;;;;;;11.50;10.30;;;3.10;68.20;;;;;;6244861;28;20475;-64
2021/12/22 05:49:51;;;;;;;12.73;10.00;;;3.10;68.10;;;;;;6254041;28;20482;-64
2021/12/22 05:52:55;;;;;;;17.93;9.93;;;3.10;68.40;;;;;;6253954;28;20474;-64
2021/12/22 05:55:59;;;;;;;17.50;12.57;;;3.20;68.80;;;;;;6253416;28;20474;-64
2021/12/22 05:59:03;;;;;;;15.40;10.90;;;3.20;69.90;;;;;;6253681;28;20485;-64
2021/12/22 06:02:06;;;;;;;12.93;11.00;;;3.20;70.70;;;;;;6254332;28;20443;-64
2021/12/22 06:05:10;;;;;;;12.57;11.27;;;3.20;71.40;;;;;;6254046;28;20489;-64
2021/12/22 06:08:13;;;;;;;13.67;11.83;;;3.20;71.90;;;;;;6254556;28;20454;-64
2021/12/22 06:11:18;;;;;;;16.40;10.30;;;3.20;72.20;;;;;;6270419;28;20438;-64
2021/12/22 06:14:21;;;;;;;15.63;11.13;;;3.30;72.40;;;;;;6278125;28;20474;-64
2021/12/22 06:17:24;;;;;;;11.70;10.50;;;3.30;72.60;;;;;;6254689;28;20459;-64
2021/12/22 06:20:29;;;;;;;12.97;10.10;;;3.20;72.30;;;;;;6253598;28;20478;-64
2021/12/22 06:23:32;;;;;;;15.70;11.87;;;3.20;72.30;;;;;;6252760;28;20950;-64
2021/12/22 06:26:36;;;;;;;20.47;10.90;;;3.10;72.20;;;;;;6252881;28;20463;-65
2021/12/22 06:29:39;;;;;;;11.50;9.97;;;3.10;72.40;;;;;;6252921;28;20471;-64
2021/12/22 06:32:44;;;;;;;14.83;10.20;;;3.10;72.30;;;;;;6253379;28;20482;-64
2021/12/22 06:35:47;;;;;;;14.53;10.27;;;3.10;72.50;;;;;;6252807;28;20549;-64
2021/12/22 06:38:51;;;;;;;13.50;10.83;;;3.00;72.60;;;;;;6252875;28;20981;-62
2021/12/22 06:41:55;;;;;;;11.93;9.50;;;3.00;72.60;;;;;;6252589;28;20968;-62
2021/12/22 06:44:59;;;;;;;12.90;11.50;;;3.00;73.30;;;;;;6252509;28;20475;-63
2021/12/22 06:48:02;;;;;;;13.30;10.50;;;3.10;73.20;;;;;;6247237;28;20923;-63
2021/12/22 06:51:06;;;;;;;13.60;10.47;;;3.10;73.30;;;;;;6252506;28;20474;-63
2021/12/22 06:54:09;;;;;;;12.53;10.20;;;3.10;73.60;;;;;;6252317;28;20475;-63
2021/12/22 06:57:16;;;;;;;13.17;10.70;;;3.10;73.80;;;;;;6251876;28;20949;-63
2021/12/22 07:00:19;;;;;;;16.23;10.90;;;3.20;73.10;;;;;;6251972;28;20470;-63
2021/12/22 07:03:22;;;;;;;11.00;9.90;;;3.20;73.00;;;;;;6252342;28;20470;-62
2021/12/22 07:06:25;;;;;;;14.37;10.07;;;3.20;73.10;;;;;;6252838;28;20923;-62
2021/12/22 07:09:28;;;;;;;12.27;9.40;;;3.30;73.30;;;;;;6252377;28;20935;-63
2021/12/22 07:12:34;;;;;;;12.67;10.00;;;3.30;73.00;;;;;;6252913;28;20474;-63
2021/12/22 07:15:37;;;;;;;15.70;10.60;;;3.30;72.80;;;;;;6252272;28;20475;-63
2021/12/22 07:18:40;;;;;;;15.27;10.03;;;3.30;72.60;;;;;;6252895;28;20482;-63
2021/12/22 07:21:44;;;;;;;13.20;9.37;;;3.30;72.30;;;;;;6260263;28;20474;-63
2021/12/22 07:24:48;;;;;;;12.03;9.03;;;3.30;71.90;;;;;;6258919;28;20804;-63
2021/12/22 07:27:53;;;;;;;14.03;9.10;;;3.30;71.90;;;;;;6258200;28;20474;-63
2021/12/22 07:30:56;;;;;;;9.50;8.40;;;3.30;71.80;;;;;;6256152;28;20554;-63
2021/12/22 07:34:07;;;;;;;12.57;9.37;;;3.40;71.60;;;;;;6252957;28;20478;-62
2021/12/22 07:37:27;;;;;;;16.03;10.47;;;3.40;71.40;;;;;;6257497;28;20479;-64
2021/12/22 07:40:31;;;;;;;10.83;8.70;;;3.50;71.40;;;;;;6257828;28;20495;-63
2021/12/22 07:43:36;;;;;;;13.20;9.93;;;3.50;70.70;;;;;;6252913;28;20479;-63
2021/12/22 07:46:40;;;;;;;12.30;10.20;;;3.50;70.40;;;;;;6253362;28;20959;-63
2021/12/22 07:49:43;;;;;;;10.70;9.60;;;3.60;69.80;;;;;;6251706;28;20479;-63
2021/12/22 07:52:46;;;;;;;10.37;9.10;;;3.60;69.20;;;;;;6251302;28;21077;-64
2021/12/22 07:55:52;;;;;;;9.93;7.20;;;3.50;69.10;;;;;;6241553;28;20467;-64
2021/12/22 07:58:57;;;;;;;12.70;9.17;;;3.60;69.20;;;;;;6250564;28;20475;-64
2021/12/22 08:02:00;;;;;;;24.07;8.93;;;3.60;69.20;;;;;;6250738;28;20468;-64
2021/12/22 08:05:04;;;;;;;9.57;8.60;;;3.60;70.00;;;;;;6250745;28;20586;-64
2021/12/22 08:08:10;;;;;;;10.87;9.77;;;3.60;69.20;;;;;;6250950;28;20432;-64
2021/12/22 08:11:13;;;;;;;18.60;9.77;;;3.60;69.20;;;;;;6267850;28;20445;-63
2021/12/22 08:14:18;;;;;;;54.97;35.93;;;3.70;69.30;;;;;;6276354;28;20462;-63
2021/12/22 08:17:21;;;;;;;70.40;51.03;;;3.60;69.20;;;;;;6253038;28;20911;-63
2021/12/22 08:20:25;;;;;;;55.43;43.87;;;3.70;69.30;;;;;;6251147;28;20923;-64
2021/12/22 08:23:28;;;;;;;163.67;86.60;;;3.70;69.30;;;;;;6251482;28;20546;-64
2021/12/22 08:26:32;;;;;;;142.23;82.23;;;3.70;69.30;;;;;;6251008;28;20471;-64
2021/12/22 08:29:41;;;;;;;72.70;46.77;;;3.70;68.60;;;;;;6251115;28;20785;-64
2021/12/22 08:32:45;;;;;;;18.70;16.90;;;3.80;68.40;;;;;;6250895;28;20475;-64
2021/12/22 08:39:09;;;;;;;12.23;9.07;;;3.90;67.90;;;;;;6250246;28;20471;-64
2021/12/22 08:42:12;;;;;;;9.97;8.13;;;4.00;67.50;;;;;;6250177;28;20466;-64
2021/12/22 08:45:18;;;;;;;12.77;8.57;;;4.10;67.20;;;;;;6249719;28;20562;-63
2021/12/22 08:48:21;;;;;;;14.10;9.50;;;4.00;67.60;;;;;;6249830;28;20474;-63
2021/12/22 08:51:24;;;;;;;13.37;10.07;;;4.10;68.20;;;;;;6251236;28;20466;-64
2021/12/22 08:54:28;;;;;;;12.23;8.87;;;4.10;67.90;;;;;;6250510;28;20472;-65
2021/12/22 08:57:32;;;;;;;13.07;9.50;;;4.20;67.60;;;;;;6246775;28;20479;-64
2021/12/22 09:00:38;;;;;;;16.03;9.17;;;4.30;67.60;;;;;;6251580;28;20470;-65
2021/12/22 09:03:41;;;;;;;10.33;8.10;;;4.30;66.90;;;;;;6249547;28;20483;-64
2021/12/22 09:06:45;;;;;;;10.40;8.80;;;4.40;66.40;;;;;;6250560;28;20489;-64
2021/12/22 09:09:48;;;;;;;11.70;10.07;;;4.40;66.10;;;;;;6255201;28;20507;-64
2021/12/22 09:12:51;;;;;;;14.33;8.80;;;4.40;65.70;;;;;;6279032;28;20477;-64
2021/12/22 09:15:56;;;;;;;12.30;9.13;;;4.40;65.70;;;;;;6268594;28;20470;-64
2021/12/22 09:18:59;;;;;;;10.40;9.40;;;4.40;65.20;;;;;;6254326;28;20478;-65
2021/12/22 09:22:03;;;;;;;11.87;8.80;;;4.40;65.10;;;;;;6254547;28;20475;-65
2021/12/22 09:25:11;;;;;;;11.60;7.70;;;4.40;64.80;;;;;;6254260;28;20485;-64
2021/12/22 09:28:14;;;;;;;10.10;8.60;;;4.40;64.70;;;;;;6254362;28;20478;-64
2021/12/22 09:31:19;;;;;;;14.90;8.80;;;4.30;63.30;;;;;;6254043;28;20462;-64
2021/12/22 09:34:22;;;;;;;9.63;8.43;;;4.30;63.30;;;;;;6254208;28;20497;-64
2021/12/22 09:37:26;;;;;;;9.20;8.27;;;4.30;62.80;;;;;;6254539;28;20481;-65
2021/12/22 09:40:29;;;;;;;10.03;8.30;;;4.30;63.30;;;;;;6254101;28;20479;-64
2021/12/22 09:43:32;;;;;;;11.30;10.10;;;4.30;63.20;;;;;;6253577;28;20479;-64
2021/12/22 09:46:39;;;;;;;14.20;10.93;;;4.20;63.40;;;;;;6254749;28;20467;-64
2021/12/22 09:50:06;;;;;;;10.40;9.00;;;4.20;64.50;;;;;;6257509;28;20471;-64
2021/12/22 09:53:09;;;;;;;9.10;8.10;;;4.20;64.20;;;;;;6254806;28;20462;-64
2021/12/22 09:56:14;;;;;;;9.50;7.50;;;4.10;61.90;;;;;;6255345;28;20462;-64
2021/12/22 09:59:18;;;;;;;8.90;8.10;;;4.00;61.00;;;;;;6253511;28;20772;-64
2021/12/22 10:02:28;;;;;;;9.33;7.77;;;4.00;60.80;;;;;;6239370;28;20478;-64
2021/12/22 10:05:32;;;;;;;10.10;8.73;;;4.10;60.20;;;;;;6253000;28;20471;-64
2021/12/22 10:08:38;;;;;;;9.67;8.47;;;4.10;60.00;;;;;;6253509;28;20517;-64
2021/12/22 10:11:45;;;;;;;13.90;8.77;;;4.00;60.10;;;;;;6273473;28;20813;-64
2021/12/22 10:14:52;;;;;;;8.53;7.17;;;4.10;60.70;;;;;;6275783;28;20485;-64
2021/12/22 10:18:08;;;;;;;11.30;8.60;;;4.20;60.40;;;;;;6252955;28;20479;-64
2021/12/22 10:21:14;;;;;;;11.30;8.73;;;4.20;59.80;;;;;;6252670;28;20541;-63
2021/12/22 10:24:17;;;;;;;9.50;8.20;;;4.30;60.10;;;;;;6252300;28;20478;-63
2021/12/22 10:27:22;;;;;;;10.87;8.63;;;4.30;60.10;;;;;;6253135;28;20470;-63
2021/12/22 10:30:29;;;;;;;9.70;8.70;;;4.30;59.60;;;;;;6253409;28;20525;-62
2021/12/22 10:33:36;;;;;;;12.43;9.30;;;4.30;60.30;;;;;;6252868;28;20862;-63
2021/12/22 10:36:45;;;;;;;11.90;9.27;;;4.40;60.30;;;;;;6252950;28;20482;-63
2021/12/22 10:39:49;;;;;;;13.03;9.33;;;4.50;60.10;;;;;;6253323;28;20479;-62
2021/12/22 10:42:52;;;;;;;15.43;10.30;;;4.60;59.60;;;;;;6251970;28;20987;-63
2021/12/22 10:45:59;;;;;;;15.07;10.97;;;4.60;59.60;;;;;;6252773;28;20486;-63
2021/12/22 10:49:17;;;;;;;13.00;9.27;;;4.60;59.10;;;;;;6252547;28;20501;-63
2021/12/22 10:52:25;;;;;;;10.37;9.30;;;4.60;58.80;;;;;;6252517;28;20471;-63
2021/12/22 10:55:38;;;;;;;11.40;9.80;;;4.50;59.10;;;;;;6252113;28;20981;-63
2021/12/22 10:58:41;;;;;;;10.60;9.50;;;4.20;59.30;;;;;;6252458;28;20776;-63
2021/12/22 11:02:07;;;;;;;16.70;10.13;;;4.30;59.60;;;;;;6251673;28;20479;-63
2021/12/22 11:05:23;;;;;;;12.17;9.23;;;4.20;59.60;;;;;;6241883;28;20467;-62
2021/12/22 11:08:27;;;;;;;12.00;10.80;;;4.10;60.20;;;;;;6251673;28;20454;-62
2021/12/22 11:11:36;;;;;;;15.60;10.50;;;4.10;61.60;;;;;;6270946;28;20469;-63
2021/12/22 11:14:41;;;;;;;12.10;10.17;;;4.10;62.40;;;;;;6275501;28;20480;-63
2021/12/22 11:17:44;;;;;;;13.50;10.10;;;3.90;63.10;;;;;;6251852;28;20471;-62
2021/12/22 11:21:07;;;;;;;13.30;10.70;;;3.80;63.20;;;;;;6251567;28;20477;-63
2021/12/22 11:24:11;;;;;;;15.30;11.77;;;3.70;64.10;;;;;;6250897;28;20477;-63
2021/12/22 11:27:16;;;;;;;16.43;12.60;;;3.60;64.30;;;;;;6251511;28;20477;-63
2021/12/22 11:30:20;;;;;;;14.60;11.77;;;3.60;64.60;;;;;;6251319;28;20486;-62
2021/12/22 11:33:24;;;;;;;21.87;12.00;;;3.60;64.50;;;;;;6250984;28;20516;-62
2021/12/22 11:36:29;;;;;;;14.63;12.00;;;3.60;64.70;;;;;;6250963;28;20963;-63
2021/12/22 11:39:33;;;;;;;15.20;12.23;;;3.70;64.70;;;;;;6251092;28;20797;-63
2021/12/22 11:42:39;;;;;;;17.30;11.30;;;3.70;64.90;;;;;;6251192;28;20540;-63
2021/12/22 11:45:43;;;;;;;16.97;11.60;;;3.40;64.90;;;;;;6250643;28;20475;-63
2021/12/22 11:48:49;;;;;;;14.50;10.80;;;3.30;65.20;;;;;;6250783;28;20467;-63
2021/12/22 11:51:53;;;;;;;14.83;11.67;;;3.50;64.90;;;;;;6251163;28;20466;-63
2021/12/22 11:55:24;;;;;;;15.30;11.80;;;3.40;64.60;;;;;;6250682;28;20501;-63
2021/12/22 11:58:35;;;;;;;14.70;12.27;;;3.40;65.20;;;;;;6250905;28;20481;-63
2021/12/22 12:01:38;;;;;;;16.40;12.73;;;3.50;64.50;;;;;;6250486;28;20490;-63
2021/12/22 12:04:42;;;;;;;13.30;12.00;;;3.60;64.60;;;;;;6250309;28;20805;-63
2021/12/22 12:07:51;;;;;;;13.43;11.33;;;3.50;64.40;;;;;;6246314;28;20482;-64
2021/12/22 12:10:56;;;;;;;11.70;10.07;;;3.60;64.60;;;;;;6264518;28;20470;-63
2021/12/22 12:14:06;;;;;;;13.10;10.77;;;3.70;64.00;;;;;;6274730;28;20535;-63
2021/12/22 12:24:34;;;;;;;14.43;11.70;;;3.50;64.40;;;;;;6250395;28;20475;-63
2021/12/22 12:27:51;;;;;;;12.13;10.93;;;3.50;64.20;;;;;;6250727;28;20494;-63
2021/12/22 12:30:56;;;;;;;13.10;11.53;;;3.50;64.00;;;;;;6250273;28;20822;-63
2021/12/22 12:34:20;;;;;;;12.67;11.37;;;3.60;64.10;;;;;;6249958;28;20540;-63
2021/12/22 12:37:53;;;;;;;12.10;9.90;;;3.50;64.20;;;;;;6249813;28;20494;-63
2021/12/22 12:41:14;;;;;;;12.20;10.90;;;3.60;64.00;;;;;;6250027;28;20966;-63
2021/12/22 12:44:30;;;;;;;12.93;10.10;;;3.80;63.90;;;;;;6249992;28;20462;-64
2021/12/22 12:47:33;;;;;;;11.17;9.93;;;4.00;62.80;;;;;;6254088;28;20474;-63
2021/12/22 12:50:36;;;;;;;11.47;10.27;;;4.00;62.30;;;;;;6255401;28;20478;-63
2021/12/22 12:53:41;;;;;;;12.23;10.17;;;3.90;62.20;;;;;;6255238;28;20486;-63
2021/12/22 12:56:47;;;;;;;18.90;9.87;;;3.90;62.40;;;;;;6255577;28;20474;-63
2021/12/22 12:59:54;;;;;;;10.70;9.60;;;3.70;62.50;;;;;;6254652;28;20489;-63
2021/12/22 13:03:02;;;;;;;12.47;10.93;;;3.60;63.50;;;;;;6254693;28;20478;-63
2021/12/22 13:06:10;;;;;;;14.80;10.30;;;3.50;63.70;;;;;;6254713;28;20486;-63
2021/12/22 13:09:22;;;;;;;13.33;10.43;;;3.50;63.20;;;;;;6245224;28;20462;-63
2021/12/22 13:12:47;;;;;;;11.37;9.80;;;3.40;63.70;;;;;;6279363;28;20473;-63
2021/12/22 13:15:52;;;;;;;10.87;9.53;;;3.20;64.40;;;;;;6268587;28;20505;-63
2021/12/22 13:18:55;;;;;;;13.60;12.20;;;3.30;63.80;;;;;;6254538;28;20478;-63
2021/12/22 13:22:15;;;;;;;12.03;9.07;;;3.30;63.80;;;;;;6254474;28;20486;-63
2021/12/22 13:25:24;;;;;;;13.00;11.20;;;3.20;64.30;;;;;;6253972;28;20967;-63
2021/12/22 13:28:30;;;;;;;12.57;10.50;;;3.00;64.70;;;;;;6254412;28;20479;-63
2021/12/22 13:31:34;;;;;;;11.07;10.07;;;3.10;65.20;;;;;;6254333;28;20466;-63
2021/12/22 13:34:44;;;;;;;13.30;11.53;;;3.10;65.30;;;;;;6253751;28;20989;-63
2021/12/22 13:37:50;;;;;;;11.07;9.87;;;3.10;64.80;;;;;;6254146;28;20813;-63
2021/12/22 13:40:55;;;;;;;12.77;9.73;;;3.10;65.20;;;;;;6253696;28;20485;-64
2021/12/22 13:44:01;;;;;;;11.73;10.50;;;3.10;64.80;;;;;;6253776;28;20493;-63
2021/12/22 13:47:07;;;;;;;15.43;10.63;;;3.00;64.90;;;;;;6253864;28;20515;-63
2021/12/22 13:50:10;;;;;;;16.67;10.07;;;3.00;64.90;;;;;;6254220;28;20450;-63
2021/12/22 13:53:15;;;;;;;11.30;9.70;;;2.90;65.40;;;;;;6253854;28;20473;-63
2021/12/22 13:56:18;;;;;;;14.33;10.50;;;3.00;64.90;;;;;;6253696;28;20447;-63
2021/12/22 13:59:24;;;;;;;11.07;9.80;;;2.90;64.90;;;;;;6254906;28;20453;-63
2021/12/22 14:02:36;;;;;;;12.90;8.67;;;2.70;65.20;;;;;;6254428;28;20486;-63
2021/12/22 14:05:39;;;;;;;16.87;11.30;;;2.80;65.50;;;;;;6253913;28;20804;-63
2021/12/22 14:08:43;;;;;;;16.13;9.27;;;2.70;65.20;;;;;;6253422;28;20959;-63
2021/12/22 14:11:47;;;;;;;11.77;10.03;;;2.60;65.90;;;;;;6265539;28;20474;-62
2021/12/22 14:14:52;;;;;;;11.10;9.73;;;2.60;65.90;;;;;;6276297;28;20481;-62
2021/12/22 14:17:57;;;;;;;12.77;10.30;;;2.50;65.90;;;;;;6254604;28;20471;-62
2021/12/22 14:21:00;;;;;;;11.27;9.80;;;2.50;66.00;;;;;;6254056;28;20471;-62
2021/12/22 14:24:03;;;;;;;15.13;10.50;;;2.60;66.90;;;;;;6252849;28;20474;-62
2021/12/22 14:27:09;;;;;;;12.93;11.30;;;2.60;66.70;;;;;;6254270;28;20463;-64
2021/12/22 14:30:32;;;;;;;16.37;10.40;;;2.60;66.10;;;;;;6253260;28;20873;-63
2021/12/22 14:33:41;;;;;;;12.80;9.73;;;2.60;65.90;;;;;;6252665;28;20475;-63
2021/12/22 14:36:46;;;;;;;12.07;9.80;;;2.50;65.90;;;;;;6253129;28;20475;-63
2021/12/22 14:39:51;;;;;;;15.17;10.37;;;2.50;66.20;;;;;;6252994;28;20471;-63
2021/12/22 14:42:57;;;;;;;13.57;9.80;;;2.50;66.50;;;;;;6252650;28;20521;-63
2021/12/22 14:46:01;;;;;;;13.03;10.73;;;2.50;66.20;;;;;;6252613;28;20467;-63
2021/12/22 14:49:14;;;;;;;11.77;10.53;;;2.50;66.30;;;;;;6252583;28;20954;-63
2021/12/22 14:52:19;;;;;;;11.27;10.10;;;2.40;66.70;;;;;;6252214;28;20917;-63
2021/12/22 14:55:43;;;;;;;14.83;10.93;;;2.40;66.60;;;;;;6252376;28;20954;-63
2021/12/22 14:58:47;;;;;;;15.60;10.20;;;2.30;66.80;;;;;;6252685;28;20471;-63
2021/12/22 15:01:52;;;;;;;12.90;10.87;;;2.20;67.50;;;;;;6251940;28;20479;-63
2021/12/22 15:04:57;;;;;;;15.13;11.17;;;2.10;67.70;;;;;;6251552;28;20487;-63
2021/12/22 15:08:00;;;;;;;13.70;10.83;;;2.10;67.70;;;;;;6252027;28;20490;-63
2021/12/22 15:11:05;;;;;;;9.93;9.00;;;2.00;68.50;;;;;;6266477;28;20466;-63
2021/12/22 15:14:08;;;;;;;11.17;9.87;;;2.00;68.70;;;;;;6276631;28;20465;-63
2021/12/22 15:17:12;;;;;;;14.00;11.57;;;2.00;68.80;;;;;;6261286;28;20454;-63
2021/12/22 15:20:18;;;;;;;16.27;11.50;;;2.00;69.10;;;;;;6252400;28;20447;-63
2021/12/22 15:23:21;;;;;;;15.50;11.47;;;2.00;69.20;;;;;;6251926;28;20486;-63
2021/12/22 15:26:25;;;;;;;15.77;11.30;;;2.00;69.30;;;;;;6252409;28;20439;-63
2021/12/22 15:29:28;;;;;;;16.17;11.47;;;1.90;69.40;;;;;;6252889;28;20525;-63
2021/12/22 15:32:33;;;;;;;13.37;11.57;;;1.90;69.60;;;;;;6252350;28;20478;-63
2021/12/22 15:35:39;;;;;;;15.40;11.70;;;1.90;69.70;;;;;;6251686;28;20467;-63
2021/12/22 15:38:42;;;;;;;17.50;11.43;;;1.80;69.90;;;;;;6252269;28;20473;-63
2021/12/22 15:41:45;;;;;;;16.93;12.80;;;1.80;70.10;;;;;;6252255;28;20463;-63
2021/12/22 15:44:49;;;;;;;12.97;11.53;;;1.80;70.20;;;;;;6251723;28;20467;-63
2021/12/22 15:47:55;;;;;;;24.77;13.20;;;1.80;70.50;;;;;;6251667;28;20471;-63
2021/12/22 15:51:00;;;;;;;14.00;12.07;;;1.80;70.80;;;;;;6251449;28;20470;-64
2021/12/22 15:54:04;;;;;;;17.90;12.90;;;1.80;70.80;;;;;;6250665;28;20486;-64
2021/12/22 15:57:07;;;;;;;17.93;13.47;;;1.80;71.00;;;;;;6250916;28;20467;-64
2021/12/22 16:00:13;;;;;;;19.23;12.40;;;1.80;71.10;;;;;;6250483;28;20963;-64
2021/12/22 16:03:17;;;;;;;24.20;16.30;;;1.80;71.80;;;;;;6250744;28;20474;-63
2021/12/22 16:06:22;;;;;;;16.93;13.57;;;1.80;72.00;;;;;;6250610;28;20463;-63
2021/12/22 16:09:25;;;;;;;21.70;12.70;;;1.80;72.10;;;;;;6252512;28;20463;-64
2021/12/22 16:12:28;;;;;;;17.60;13.73;;;1.90;72.30;;;;;;6275215;28;20477;-64
2021/12/22 16:15:32;;;;;;;16.40;13.87;;;1.80;72.20;;;;;;6273278;28;20478;-64